Flight Track Log - Related Links

Times and Time Zones

All times are in EDT time to prevent confusion due to time zone crossing. See the SWA149 flight status page for this flight to view local times or setup timezone preferences in your user account.

Time Position Orientation Groundspeed Altitude Reporting Facility
EDT Latitude Longitude Course Direction KTS MPH feet Rate Location/Type
Sun 10:45:09 AM 33.5919 -86.7122 53° Northeast 171 197 2,800  Level Atlanta Center
Sun 10:46:36 AM 33.6694 -86.7022 North 177 204 5,900 2,122 Climbing Atlanta Center
Sun 10:47:36 AM 33.6656 -86.7892 267° West 144 166 8,000 2,200 Climbing Atlanta Center
Sun 10:48:36 AM 33.6594 -86.8714 265° West 188 216 10,300 2,500 Climbing Atlanta Center
Sun 10:49:36 AM 33.6464 -86.9808 262° West 260 299 13,000 2,938 Climbing Atlanta Center
Sun 10:51:50 AM 33.6708 -87.2622 276° West 352 405 19,800 2,876 Climbing Memphis Center
Sun 10:52:50 AM 33.6864 -87.3914 278° West 376 433 22,300 1,850 Climbing Memphis Center
Sun 10:53:50 AM 33.6622 -87.5194 257° West 388 447 23,500 1,850 Climbing Memphis Center
Sun 10:54:50 AM 33.6400 -87.6475 258° West 394 453 26,000 2,200 Climbing Memphis Center
Sun 10:55:50 AM 33.6158 -87.7781 258° West 394 453 27,900 1,850 Climbing Memphis Center
Sun 10:56:50 AM 33.5914 -87.9108 258° West 399 459 29,700 1,950 Climbing Memphis Center
Sun 10:57:50 AM 33.5708 -88.0436 260° West 404 465 31,800 1,800 Climbing Memphis Center
Sun 10:58:50 AM 33.5439 -88.1739 256° West 404 465 33,300 1,400 Climbing Memphis Center
Sun 10:59:50 AM 33.5294 -88.2914 262° West 410 472 34,600 1,350 Climbing Memphis Center
Sun 11:00:50 AM 33.5064 -88.4189 258° West 405 466 36,000 700 Climbing Memphis Center
Sun 11:01:50 AM 33.4875 -88.5489 260° West 397 457 36,000  Level Memphis Center
Sun 11:02:50 AM 33.4850 -88.6808 269° West 397 457 36,000  Level Memphis Center
Sun 11:03:50 AM 33.4847 -88.8156 270° West 403 464 36,000  Level Memphis Center
Sun 11:04:50 AM 33.4842 -88.9500 270° West 403 464 36,000  Level Memphis Center
Sun 11:05:50 AM 33.4817 -89.0969 269° West 403 464 36,000 650 Level Memphis Center
Sun 11:06:50 AM 33.4808 -89.2289 270° West 403 464 37,300 1,000 Climbing Memphis Center
Sun 11:07:50 AM 33.4758 -89.3586 267° West 403 464 38,000 350 Climbing Memphis Center
Sun 11:08:50 AM 33.4369 -89.4761 248° West 382 440 38,000  Level Memphis Center
Sun 11:09:50 AM 33.3961 -89.5958 248° West 388 447 38,000  Level Memphis Center
Sun 11:10:50 AM 33.3550 -89.7131 247° West 388 447 38,000  Level Memphis Center
Sun 11:11:50 AM 33.3136 -89.8278 247° West 388 447 38,000  Level Memphis Center
Sun 11:12:50 AM 33.2744 -89.9472 249° West 388 447 38,000  Level Memphis Center
Sun 11:13:50 AM 33.2331 -90.0642 247° West 388 447 38,000  Level Memphis Center
Sun 11:14:50 AM 33.2061 -90.1761 254° West 393 452 38,000  Level Memphis Center
Sun 11:15:50 AM 33.1772 -90.3028 255° West 393 452 38,000  Level Memphis Center
Sun 11:16:50 AM 33.1478 -90.4267 254° West 388 447 38,000  Level Memphis Center
Sun 11:17:50 AM 33.1206 -90.5556 256° West 398 458 38,000 300 Level Memphis Center
Sun 11:18:50 AM 33.0911 -90.6797 254° West 398 458 38,600 750 Climbing Memphis Center
Sun 11:19:50 AM 33.0636 -90.8108 256° West 398 458 39,500 650 Climbing Memphis Center
Sun 11:20:50 AM 33.0317 -90.9397 254° West 398 458 39,900 250 Climbing Memphis Center
Sun 11:21:50 AM 33.0019 -91.0756 255° West 406 467 40,000 35 Climbing Memphis Center
Sun 11:23:42 AM 32.9486 -91.3167 255° West 409 471 40,000  Level Fort Worth Center
Sun 11:24:42 AM 32.9194 -91.4472 255° West 403 464 40,000  Level Fort Worth Center
Sun 11:25:42 AM 32.8900 -91.5781 255° West 408 470 40,000 -400 Level Fort Worth Center
Sun 11:26:42 AM 32.8561 -91.7061 253° West 408 470 39,200 -900 Descending Fort Worth Center
Sun 11:27:42 AM 32.8292 -91.8489 257° West 408 470 38,200 -950 Descending Fort Worth Center
Sun 11:28:42 AM 32.7933 -91.9844 253° West 408 470 37,300 -950 Descending Fort Worth Center
Sun 11:29:42 AM 32.7678 -92.1144 257° West 408 470 36,300 -650 Descending Fort Worth Center
Sun 11:30:42 AM 32.7317 -92.2500 252° West 418 481 36,000 -150 Descending Fort Worth Center
Sun 11:31:42 AM 32.6994 -92.3825 254° West 424 488 36,000  Level Fort Worth Center
Sun 11:32:42 AM 32.6669 -92.5128 254° West 424 488 36,000  Level Fort Worth Center
Sun 11:33:42 AM 32.6364 -92.6400 254° West 424 488 36,000  Level Fort Worth Center
Sun 11:34:42 AM 32.6164 -92.7719 260° West 424 488 36,000  Level Fort Worth Center
Sun 11:35:42 AM 32.6025 -92.9106 263° West 418 481 36,000  Level Fort Worth Center
Sun 11:36:42 AM 32.5906 -93.0469 264° West 423 487 36,000  Level Fort Worth Center
Sun 11:37:42 AM 32.5767 -93.1856 263° West 429 494 36,000  Level Fort Worth Center
Sun 11:38:42 AM 32.5625 -93.3242 263° West 429 494 36,000  Level Fort Worth Center
Sun 11:39:42 AM 32.5481 -93.4628 263° West 429 494 36,000  Level Fort Worth Center
Sun 11:40:42 AM 32.5356 -93.6014 264° West 429 494 36,000  Level Fort Worth Center
Sun 11:41:42 AM 32.5208 -93.7400 263° West 429 494 36,000  Level Fort Worth Center
Sun 11:42:42 AM 32.5061 -93.8808 263° West 429 494 36,000  Level Fort Worth Center
Sun 11:43:42 AM 32.4911 -94.0194 263° West 429 494 36,000  Level Fort Worth Center
Sun 11:44:42 AM 32.4825 -94.1603 266° West 429 494 36,000  Level Fort Worth Center
Sun 11:45:42 AM 32.4733 -94.3008 266° West 429 494 36,000  Level Fort Worth Center
Sun 11:46:42 AM 32.4681 -94.4267 267° West 429 494 36,000  Level Fort Worth Center
Sun 11:47:42 AM 32.4567 -94.5672 265° West 429 494 36,000 -300 Level Fort Worth Center
Sun 11:48:42 AM 32.4494 -94.7128 267° West 434 499 35,400 -1,500 Descending Fort Worth Center
Sun 11:49:42 AM 32.4400 -94.8508 265° West 434 499 33,000 -2,350 Descending Fort Worth Center
Sun 11:50:42 AM 32.4364 -94.9914 268° West 434 499 30,700 1,500 Descending Fort Worth Center
Sun 11:51:42 AM 32.4264 -95.1294 265° West 429 494 36,000 -2,100 Climbing Fort Worth Center
Sun 11:52:42 AM 32.4183 -95.2600 266° West 416 479 26,500 -5,850 Descending Fort Worth Center
Sun 11:53:42 AM 32.4206 -95.3856 271° West 403 464 24,300 -2,400 Descending Fort Worth Center
Sun 11:54:42 AM 32.4392 -95.5131 280° West 397 457 21,700 -2,550 Descending Fort Worth Center
Sun 11:55:42 AM 32.4597 -95.6381 281° West 397 457 19,200 -2,100 Descending Fort Worth Center
Sun 11:56:42 AM 32.4761 -95.7611 279° West 390 449 17,500 -1,750 Descending Fort Worth Center
Sun 11:57:42 AM 32.4964 -95.8764 282° West 374 430 15,700 -1,750 Descending Fort Worth Center
Sun 11:58:42 AM 32.5100 -95.9894 278° West 362 417 14,000 -1,600 Descending Fort Worth Center
Sun 11:59:42 AM 32.5281 -96.0928 282° West 341 392 12,500 -1,500 Descending Fort Worth Center
Sun 12:00:42 PM 32.5414 -96.1936 279° West 326 375 11,000 -1,400 Descending Fort Worth Center
Sun 12:01:42 PM 32.5569 -96.2894 281° West 313 360 9,700 -1,500 Descending Fort Worth Center
Sun 12:02:42 PM 32.5869 -96.3731 293° West 289 333 8,000 -1,600 Descending Fort Worth Center
Sun 12:03:42 PM 32.6292 -96.4489 303° West 277 319 6,500 -1,250 Descending Fort Worth Center
Sun 12:04:42 PM 32.6694 -96.5200 304° West 272 313 5,500 -950 Descending Fort Worth Center
Sun 12:05:42 PM 32.7242 -96.5811 317° Northwest 272 313 4,600 -750 Descending Fort Worth Center
Sun 12:06:42 PM 32.7789 -96.6400 318° Northwest 267 307 4,000 -300 Descending Fort Worth Center
Sun 12:07:42 PM 32.8314 -96.6964 318° Northwest 262 302 4,000 -450 Level Fort Worth Center
Sun 12:08:42 PM 32.8797 -96.7481 318° Northwest 246 283 3,100 -500 Descending Fort Worth Center
Sun 12:09:42 PM 32.9194 -96.8022 311° West 230 265 3,000 -350 Descending Fort Worth Center
Sun 12:10:42 PM 32.9242 -96.8689 275° West 203 234 2,400 -650 Descending Fort Worth Center
Sun 12:11:42 PM 32.8969 -96.8989 223° Southwest 145 167 1,700 -800 Descending Fort Worth Center
Sun 12:12:42 PM 32.8678 -96.8692 139° Southeast 74 85 800 -350 Descending Fort Worth Center
Sun 12:13:42 PM 32.8383 -96.8275 130° Southeast 85 98 1,000 350 Climbing Fort Worth Center
Sun 12:14:42 PM 32.8319 -96.7928 102° East 126 145 1,500 500 Climbing Fort Worth Center

Login

Don't have an account? Register now (free) for customized features, flight alerts, and more!